Time;durP1;ratioP1;P1;durP2;ratioP2;P2;SDS_P1;SDS_P2;PMS_P1;PMS_P2;Temp;Humidity;BMP_temperature;BMP_pressure;BME280_temperature;BME280_humidity;BME280_pressure;Samples;Min_cycle;Max_cycle;Signal;HPM_P1;HPM_P2
2022/07/19 00:00:49;;;;;;;2.65;1.95;;;25.90;99.90;;;;;;4248542;27;20253;-77
2022/07/19 00:02:53;;;;;;;2.50;1.60;;;25.90;99.90;;;;;;4248314;27;20273;-78
2022/07/19 00:04:56;;;;;;;2.65;1.88;;;25.90;99.90;;;;;;4245677;27;20265;-78
2022/07/19 00:06:59;;;;;;;2.22;1.83;;;25.90;99.90;;;;;;4248633;27;20231;-77
2022/07/19 00:09:01;;;;;;;1.77;1.58;;;25.90;99.90;;;;;;4236560;27;20202;-78
2022/07/19 00:11:03;;;;;;;4.72;1.60;;;25.90;99.90;;;;;;4247737;27;20266;-77
2022/07/19 00:13:06;;;;;;;2.28;1.67;;;25.90;99.90;;;;;;4248786;27;20216;-77
2022/07/19 00:15:11;;;;;;;2.85;2.17;;;25.90;99.90;;;;;;4248294;27;20209;-78
2022/07/19 00:17:13;;;;;;;1.70;1.50;;;25.90;99.90;;;;;;4248484;27;21132;-77
2022/07/19 00:19:17;;;;;;;2.00;1.60;;;25.90;99.90;;;;;;4248286;27;20765;-77
2022/07/19 00:21:19;;;;;;;2.35;1.63;;;25.90;99.90;;;;;;4236789;27;20294;-77
2022/07/19 00:23:21;;;;;;;2.25;1.52;;;25.90;99.90;;;;;;4248425;27;20706;-78
2022/07/19 00:25:24;;;;;;;2.85;1.92;;;25.90;99.90;;;;;;4247738;27;20213;-78
2022/07/19 00:27:26;;;;;;;2.70;1.73;;;25.90;99.90;;;;;;4237249;27;20214;-77
2022/07/19 00:29:28;;;;;;;2.08;1.80;;;25.90;99.90;;;;;;4247765;27;20209;-77
2022/07/19 00:31:31;;;;;;;2.45;1.40;;;25.80;99.90;;;;;;4248019;27;20221;-77
2022/07/19 00:33:33;;;;;;;2.25;1.80;;;25.80;99.90;;;;;;4247646;27;20614;-77
2022/07/19 00:35:37;;;;;;;2.22;1.60;;;25.80;99.90;;;;;;4247834;27;20622;-77
2022/07/19 00:37:39;;;;;;;1.95;1.75;;;25.80;99.90;;;;;;4245165;27;20254;-77
2022/07/19 00:39:42;;;;;;;2.55;1.65;;;25.90;99.90;;;;;;4248150;27;20225;-78
2022/07/19 00:41:45;;;;;;;1.88;1.70;;;25.80;99.90;;;;;;4248209;27;20209;-77
2022/07/19 00:43:47;;;;;;;2.85;1.73;;;25.80;99.90;;;;;;4233106;27;20656;-77
2022/07/19 00:45:49;;;;;;;2.70;1.92;;;25.80;99.90;;;;;;4247788;27;20209;-77
2022/07/19 00:47:51;;;;;;;2.35;1.73;;;25.80;99.90;;;;;;4247822;27;20258;-77
2022/07/19 00:49:54;;;;;;;2.38;1.95;;;25.80;99.90;;;;;;4263287;27;20212;-77
2022/07/19 00:52:00;;;;;;;2.58;1.80;;;25.80;99.90;;;;;;4265072;27;20253;-77
2022/07/19 00:54:04;;;;;;;3.05;1.92;;;25.80;99.90;;;;;;4265204;27;20200;-77
2022/07/19 00:56:07;;;;;;;4.05;2.00;;;25.80;99.90;;;;;;4229127;27;20321;-77
2022/07/19 00:58:13;;;;;;;3.83;1.88;;;25.80;99.90;;;;;;4247452;27;20309;-77
2022/07/19 01:00:17;;;;;;;3.05;2.00;;;25.80;99.90;;;;;;4247997;27;20206;-77
2022/07/19 01:02:21;;;;;;;2.42;2.10;;;25.80;99.90;;;;;;4247339;27;20251;-77
2022/07/19 01:04:24;;;;;;;3.60;2.35;;;25.80;99.90;;;;;;4247246;27;20209;-77
2022/07/19 01:06:27;;;;;;;1.67;1.40;;;25.80;99.90;;;;;;4247764;27;20277;-77
2022/07/19 01:08:30;;;;;;;2.47;1.70;;;25.80;99.90;;;;;;4242572;27;20558;-77
2022/07/19 01:10:33;;;;;;;3.20;1.65;;;25.80;99.90;;;;;;4247616;27;20262;-77
2022/07/19 01:12:35;;;;;;;2.22;1.60;;;25.80;99.90;;;;;;4244579;27;20217;-78
2022/07/19 01:14:37;;;;;;;1.80;1.55;;;25.80;99.90;;;;;;4247593;27;20266;-77
2022/07/19 01:16:44;;;;;;;2.42;1.90;;;25.70;99.90;;;;;;4247302;27;20258;-77
2022/07/19 01:18:46;;;;;;;2.95;1.92;;;25.80;99.90;;;;;;4247439;27;20278;-77
2022/07/19 01:20:48;;;;;;;2.75;1.90;;;25.80;99.90;;;;;;4247091;27;20274;-77
2022/07/19 01:22:52;;;;;;;3.03;1.55;;;25.80;99.90;;;;;;4247536;27;20209;-77
2022/07/19 01:24:54;;;;;;;3.03;2.38;;;25.80;99.90;;;;;;4246058;27;20217;-77
2022/07/19 01:26:57;;;;;;;3.05;1.90;;;25.80;99.90;;;;;;4230085;27;20267;-77
2022/07/19 01:28:59;;;;;;;4.60;2.05;;;25.80;99.90;;;;;;4236113;27;20217;-77
2022/07/19 01:31:01;;;;;;;3.47;1.80;;;25.70;99.90;;;;;;4244825;27;20266;-77
2022/07/19 01:33:04;;;;;;;2.45;1.70;;;25.80;99.90;;;;;;4247087;27;20282;-78
2022/07/19 01:35:08;;;;;;;2.53;1.50;;;25.70;99.90;;;;;;4247196;27;20241;-78
2022/07/19 01:37:10;;;;;;;3.50;1.95;;;25.70;99.90;;;;;;4247049;27;20265;-77
2022/07/19 01:39:14;;;;;;;2.30;2.00;;;25.70;99.90;;;;;;4247537;27;20217;-78
2022/07/19 01:41:16;;;;;;;2.97;1.98;;;25.70;99.90;;;;;;4247489;27;20209;-78
2022/07/19 01:43:18;;;;;;;2.33;1.83;;;25.70;99.90;;;;;;4227731;28;20270;-78
2022/07/19 01:45:21;;;;;;;2.08;1.88;;;25.70;99.90;;;;;;4244299;27;20213;-77
2022/07/19 01:47:23;;;;;;;2.28;1.90;;;25.70;99.90;;;;;;4247129;27;20710;-77
2022/07/19 01:49:26;;;;;;;4.32;2.00;;;25.70;99.90;;;;;;4247070;27;20545;-77
2022/07/19 01:51:28;;;;;;;3.10;1.70;;;25.70;99.90;;;;;;4247129;27;20217;-78
2022/07/19 01:53:30;;;;;;;2.90;1.77;;;25.70;99.90;;;;;;4247402;27;20617;-78
2022/07/19 01:55:34;;;;;;;3.15;1.88;;;25.70;99.90;;;;;;4247291;27;20217;-78
2022/07/19 01:57:36;;;;;;;4.00;1.90;;;25.70;99.90;;;;;;4246963;27;20553;-78
2022/07/19 01:59:39;;;;;;;2.67;1.92;;;25.70;99.90;;;;;;4247045;27;20228;-78
2022/07/19 02:01:42;;;;;;;4.60;1.80;;;25.70;99.90;;;;;;4247118;27;20202;-78
2022/07/19 02:03:44;;;;;;;3.30;1.80;;;25.70;99.90;;;;;;4235656;27;20209;-78
2022/07/19 02:05:47;;;;;;;3.03;2.13;;;25.70;99.90;;;;;;4246584;27;20209;-78
2022/07/19 02:07:49;;;;;;;2.97;1.70;;;25.70;99.90;;;;;;4236095;27;20209;-78
2022/07/19 02:09:51;;;;;;;3.13;2.03;;;25.70;99.90;;;;;;4246783;27;20246;-78
2022/07/19 02:11:55;;;;;;;3.15;1.90;;;25.70;99.90;;;;;;4246473;27;20205;-78
2022/07/19 02:13:59;;;;;;;3.65;2.05;;;25.70;99.90;;;;;;4247033;27;20206;-79
2022/07/19 02:16:01;;;;;;;2.75;1.95;;;25.70;99.90;;;;;;4246894;27;20274;-78
2022/07/19 02:18:03;;;;;;;3.30;2.00;;;25.70;99.90;;;;;;4246836;27;20204;-78
2022/07/19 02:20:07;;;;;;;2.00;1.75;;;25.70;99.90;;;;;;4242901;27;20277;-78
2022/07/19 02:22:09;;;;;;;3.70;1.80;;;25.70;99.90;;;;;;4246400;27;20213;-78
2022/07/19 02:24:12;;;;;;;2.15;1.80;;;25.70;99.90;;;;;;4237250;27;20259;-78
2022/07/19 02:26:14;;;;;;;2.60;1.90;;;25.70;99.90;;;;;;4241384;27;20205;-78
2022/07/19 02:28:18;;;;;;;3.35;2.00;;;25.70;99.90;;;;;;4238257;27;20980;-78
2022/07/19 02:30:20;;;;;;;2.10;1.75;;;25.60;99.90;;;;;;4246362;27;20230;-77
2022/07/19 02:32:23;;;;;;;2.70;1.85;;;25.60;99.90;;;;;;4250286;28;20250;-77
2022/07/19 02:34:25;;;;;;;4.22;2.20;;;25.70;99.90;;;;;;4261697;28;20235;-77
2022/07/19 02:36:27;;;;;;;3.03;2.17;;;25.60;99.90;;;;;;4262909;28;20201;-77
2022/07/19 02:38:30;;;;;;;3.85;2.20;;;25.70;99.90;;;;;;4248957;28;20209;-77
2022/07/19 02:40:32;;;;;;;2.45;2.10;;;25.70;99.90;;;;;;4250201;27;20224;-77
2022/07/19 02:42:34;;;;;;;2.88;1.67;;;25.60;99.90;;;;;;4257581;27;20258;-78
2022/07/19 02:44:38;;;;;;;3.35;1.90;;;25.70;99.90;;;;;;4246198;28;20259;-77
2022/07/19 02:46:40;;;;;;;2.53;2.03;;;25.60;99.90;;;;;;4246490;28;20262;-78
2022/07/19 02:48:43;;;;;;;3.30;1.85;;;25.60;99.90;;;;;;4246314;28;20657;-78
2022/07/19 02:50:45;;;;;;;2.70;1.55;;;25.60;99.90;;;;;;4246523;28;20205;-79
2022/07/19 02:52:47;;;;;;;3.47;1.77;;;25.70;99.90;;;;;;4246275;28;20619;-78
2022/07/19 02:54:50;;;;;;;4.35;2.15;;;25.60;99.90;;;;;;4243768;28;20670;-78
2022/07/19 02:56:53;;;;;;;3.13;2.10;;;25.60;99.90;;;;;;4246540;28;20246;-78
2022/07/19 02:58:55;;;;;;;2.55;1.83;;;25.60;99.90;;;;;;4245835;28;20318;-78
2022/07/19 03:00:58;;;;;;;3.20;1.80;;;25.60;99.90;;;;;;4246294;28;20285;-78
2022/07/19 03:03:43;;;;;;;7.72;2.17;;;25.60;99.90;;;;;;4245956;28;20209;-78
2022/07/19 03:05:24;;;;;;;2.47;2.08;;;25.60;99.90;;;;;;4245405;27;20214;-78
2022/07/19 03:07:26;;;;;;;4.20;1.90;;;25.60;99.90;;;;;;4246572;27;20213;-78
2022/07/19 03:09:28;;;;;;;2.50;2.00;;;25.60;99.90;;;;;;4246098;28;20209;-78
2022/07/19 03:11:30;;;;;;;3.88;2.20;;;25.60;99.90;;;;;;4235069;28;20298;-78
2022/07/19 03:13:33;;;;;;;2.58;1.80;;;25.60;99.90;;;;;;4246147;28;20213;-78
2022/07/19 03:15:36;;;;;;;4.30;1.73;;;25.50;99.90;;;;;;4246210;28;20209;-78
2022/07/19 03:17:39;;;;;;;3.00;1.90;;;25.60;99.90;;;;;;4246540;28;20668;-77
2022/07/19 03:19:41;;;;;;;2.92;1.70;;;25.60;99.90;;;;;;4260227;27;20624;-78
2022/07/19 03:21:44;;;;;;;2.42;1.92;;;25.60;99.90;;;;;;4266645;27;20204;-78
2022/07/19 03:23:46;;;;;;;3.60;2.13;;;25.60;99.90;;;;;;4243671;27;20271;-78
2022/07/19 03:25:48;;;;;;;3.38;2.13;;;25.50;99.90;;;;;;4248795;27;20265;-78
2022/07/19 03:27:51;;;;;;;4.38;2.20;;;25.60;99.90;;;;;;4240341;27;20213;-78
2022/07/19 03:29:53;;;;;;;4.10;1.88;;;25.60;99.90;;;;;;4249187;27;20201;-78
2022/07/19 03:31:55;;;;;;;2.55;1.83;;;25.50;99.90;;;;;;4249510;27;20206;-77
2022/07/19 03:33:59;;;;;;;2.70;1.80;;;25.50;99.90;;;;;;4249377;27;20246;-78
2022/07/19 03:36:01;;;;;;;3.22;1.90;;;25.50;99.90;;;;;;4249309;27;20209;-78
2022/07/19 03:38:03;;;;;;;2.53;1.83;;;25.60;99.90;;;;;;4249055;27;20250;-78
2022/07/19 03:40:07;;;;;;;3.20;2.00;;;25.50;99.90;;;;;;4248978;27;20281;-78
2022/07/19 03:42:09;;;;;;;2.13;1.77;;;25.50;99.90;;;;;;4243946;27;20209;-78
2022/07/19 03:44:11;;;;;;;3.45;1.98;;;25.50;99.90;;;;;;4238492;27;21031;-78
2022/07/19 03:46:14;;;;;;;3.97;1.88;;;25.50;99.90;;;;;;4240128;27;20209;-78
2022/07/19 03:48:17;;;;;;;2.42;1.98;;;25.50;99.90;;;;;;4248841;27;20672;-77
2022/07/19 03:50:21;;;;;;;2.95;2.05;;;25.50;99.90;;;;;;4248834;27;20246;-77
2022/07/19 03:52:23;;;;;;;3.55;2.13;;;25.50;99.90;;;;;;4249081;27;20606;-78
2022/07/19 03:54:25;;;;;;;3.55;2.10;;;25.50;99.90;;;;;;4249149;27;21028;-78
2022/07/19 03:56:28;;;;;;;4.10;2.10;;;25.50;99.90;;;;;;4249158;27;20225;-78
2022/07/19 03:58:30;;;;;;;4.28;2.13;;;25.50;99.90;;;;;;4249251;27;20320;-78
2022/07/19 04:00:32;;;;;;;5.05;2.20;;;25.50;99.90;;;;;;4248525;27;20301;-78
2022/07/19 04:02:35;;;;;;;2.53;1.90;;;25.50;99.90;;;;;;4245967;27;20266;-78
2022/07/19 04:04:37;;;;;;;2.88;2.03;;;25.50;99.90;;;;;;4246928;27;20217;-78
2022/07/19 04:06:41;;;;;;;1.73;1.63;;;25.50;99.90;;;;;;4242177;27;20665;-78
2022/07/19 04:08:43;;;;;;;4.57;2.10;;;25.50;99.90;;;;;;4243770;27;20267;-78
2022/07/19 04:10:45;;;;;;;7.78;2.00;;;25.50;99.90;;;;;;4248780;27;20227;-78
2022/07/19 04:12:47;;;;;;;2.67;2.00;;;25.50;99.90;;;;;;4254321;27;20213;-78
2022/07/19 04:14:50;;;;;;;3.58;2.38;;;25.50;99.90;;;;;;4265250;27;20212;-78
2022/07/19 04:16:52;;;;;;;2.50;1.75;;;25.50;99.90;;;;;;4265194;27;20229;-78
2022/07/19 04:18:54;;;;;;;3.40;2.00;;;25.50;99.90;;;;;;4250584;27;20262;-78
2022/07/19 04:20:56;;;;;;;3.05;1.77;;;25.50;99.90;;;;;;4245131;27;20225;-78
2022/07/19 04:23:00;;;;;;;2.47;2.00;;;25.50;99.90;;;;;;4236324;27;20250;-78
2022/07/19 04:25:03;;;;;;;3.75;2.05;;;25.50;99.90;;;;;;4242820;27;20210;-78
2022/07/19 04:27:05;;;;;;;3.20;1.95;;;25.40;99.90;;;;;;4239488;27;20218;-78
2022/07/19 04:29:08;;;;;;;2.33;1.90;;;25.50;99.90;;;;;;4246443;27;20258;-76
2022/07/19 04:31:10;;;;;;;5.63;2.00;;;25.50;99.90;;;;;;4247547;27;20669;-77
2022/07/19 04:33:14;;;;;;;3.25;2.13;;;25.50;99.90;;;;;;4248430;27;20216;-77
2022/07/19 04:35:17;;;;;;;3.53;2.15;;;25.50;99.90;;;;;;4245782;27;20217;-77
2022/07/19 04:37:19;;;;;;;2.22;1.80;;;25.50;99.90;;;;;;4245049;27;20278;-77
2022/07/19 04:39:23;;;;;;;3.70;1.90;;;25.50;99.90;;;;;;4246639;27;20217;-77
2022/07/19 04:41:25;;;;;;;2.50;1.70;;;25.50;99.90;;;;;;4246596;27;20237;-77
2022/07/19 04:43:27;;;;;;;3.22;2.10;;;25.50;99.90;;;;;;4246421;27;20661;-78
2022/07/19 04:45:30;;;;;;;2.70;1.83;;;25.50;99.90;;;;;;4251077;27;20217;-77
2022/07/19 04:47:33;;;;;;;2.33;1.95;;;25.50;99.90;;;;;;4261642;27;20220;-78
2022/07/19 04:49:35;;;;;;;2.30;2.03;;;25.40;99.90;;;;;;4260972;27;20212;-77
2022/07/19 04:51:37;;;;;;;3.40;1.92;;;25.40;99.90;;;;;;4260811;27;20254;-78
2022/07/19 04:53:40;;;;;;;2.70;2.05;;;25.50;99.90;;;;;;4249896;27;20217;-77
2022/07/19 04:55:43;;;;;;;2.80;1.75;;;25.40;99.90;;;;;;4261289;27;20604;-78
2022/07/19 04:57:46;;;;;;;3.22;2.10;;;25.40;99.90;;;;;;4261270;27;20274;-77
2022/07/19 04:59:48;;;;;;;3.72;2.00;;;25.50;99.90;;;;;;4261413;27;20251;-77
2022/07/19 05:01:50;;;;;;;2.83;2.03;;;25.40;99.90;;;;;;4260431;27;20274;-77
2022/07/19 05:03:52;;;;;;;3.70;2.13;;;25.40;99.90;;;;;;4261129;27;20648;-77
2022/07/19 05:05:55;;;;;;;3.17;1.73;;;25.40;99.90;;;;;;4248883;27;20264;-78
2022/07/19 05:07:57;;;;;;;2.47;1.70;;;25.40;99.90;;;;;;4243832;27;20205;-77
2022/07/19 05:09:59;;;;;;;4.03;2.20;;;25.40;99.90;;;;;;4244264;27;20201;-77
2022/07/19 05:12:05;;;;;;;3.42;2.13;;;25.40;99.90;;;;;;4243909;27;20201;-77
2022/07/19 05:14:07;;;;;;;3.13;2.10;;;25.40;99.90;;;;;;4235635;27;20217;-77
2022/07/19 05:16:09;;;;;;;3.67;2.15;;;25.40;99.90;;;;;;4260636;27;20276;-77
2022/07/19 05:18:12;;;;;;;3.15;2.30;;;25.40;99.90;;;;;;4260677;27;20272;-77
2022/07/19 05:20:15;;;;;;;2.60;1.77;;;25.40;99.90;;;;;;4257068;27;20232;-78
2022/07/19 05:22:17;;;;;;;3.28;1.80;;;25.50;99.90;;;;;;4244797;27;20228;-78
2022/07/19 05:24:20;;;;;;;3.42;1.92;;;25.40;99.90;;;;;;4243053;27;20261;-78
2022/07/19 05:26:22;;;;;;;2.90;1.80;;;25.40;99.90;;;;;;4251252;27;20258;-77
2022/07/19 05:28:26;;;;;;;4.07;2.10;;;25.40;99.90;;;;;;4243005;27;20209;-78
2022/07/19 05:30:29;;;;;;;2.58;1.83;;;25.40;99.90;;;;;;4243111;27;20258;-77
2022/07/19 05:32:31;;;;;;;3.13;1.92;;;25.50;99.90;;;;;;4242850;27;20248;-77
2022/07/19 05:34:33;;;;;;;2.63;1.92;;;25.40;99.90;;;;;;4243264;27;20212;-77
2022/07/19 05:36:36;;;;;;;3.95;2.13;;;25.50;99.90;;;;;;4255843;27;20311;-77
2022/07/19 05:38:38;;;;;;;2.50;2.15;;;25.50;99.90;;;;;;4262868;27;20216;-77
2022/07/19 05:40:41;;;;;;;3.67;2.10;;;25.40;99.90;;;;;;4262356;27;20724;-77
2022/07/19 05:42:43;;;;;;;3.60;2.10;;;25.40;99.90;;;;;;4248413;27;20232;-77
2022/07/19 05:44:46;;;;;;;2.30;1.88;;;25.40;99.90;;;;;;4250479;27;20220;-78
2022/07/19 05:46:49;;;;;;;4.40;2.13;;;25.40;99.90;;;;;;4262113;27;20258;-77
2022/07/19 05:48:52;;;;;;;3.33;1.95;;;25.50;99.90;;;;;;4262649;27;20217;-77
2022/07/19 05:50:54;;;;;;;3.10;2.10;;;25.40;99.90;;;;;;4262292;27;20208;-77
2022/07/19 05:52:56;;;;;;;2.40;2.00;;;25.40;99.90;;;;;;4262570;27;21550;-77
2022/07/19 05:54:58;;;;;;;4.25;2.10;;;25.40;99.90;;;;;;4262110;27;20204;-77
2022/07/19 05:57:01;;;;;;;3.13;2.00;;;25.50;99.90;;;;;;4262423;27;20204;-77
2022/07/19 05:59:03;;;;;;;4.40;1.95;;;25.50;99.90;;;;;;4262347;27;20212;-78
2022/07/19 06:01:19;;;;;;;4.72;2.00;;;25.40;99.90;;;;;;4250538;27;20310;-77
2022/07/19 06:03:21;;;;;;;5.25;2.08;;;25.40;99.90;;;;;;4243398;27;20213;-77
2022/07/19 06:05:24;;;;;;;3.03;2.33;;;25.40;99.90;;;;;;4255756;27;20212;-77
2022/07/19 06:07:26;;;;;;;3.35;2.20;;;25.40;99.90;;;;;;4260782;27;20284;-77
2022/07/19 06:09:28;;;;;;;4.07;2.20;;;25.50;99.90;;;;;;4245282;27;20213;-77
2022/07/19 06:11:30;;;;;;;3.10;2.00;;;25.50;99.90;;;;;;4249378;27;20284;-77
2022/07/19 06:13:33;;;;;;;2.55;2.00;;;25.40;99.90;;;;;;4262165;27;20217;-77
2022/07/19 06:15:35;;;;;;;2.97;2.08;;;25.50;99.90;;;;;;4262152;27;20220;-77
2022/07/19 06:17:39;;;;;;;2.80;2.00;;;25.40;99.90;;;;;;4246715;27;20258;-78
2022/07/19 06:19:41;;;;;;;2.90;1.88;;;25.50;99.90;;;;;;4244239;27;20201;-77
2022/07/19 06:21:43;;;;;;;4.10;1.92;;;25.40;99.90;;;;;;4244525;27;20233;-77
2022/07/19 06:23:46;;;;;;;2.60;2.05;;;25.40;99.90;;;;;;4245206;27;20217;-77
2022/07/19 06:25:49;;;;;;;3.15;2.22;;;25.50;99.90;;;;;;4246746;27;20570;-78
2022/07/19 06:27:51;;;;;;;2.20;1.92;;;25.40;99.90;;;;;;4243961;27;20209;-77
2022/07/19 06:29:53;;;;;;;3.47;2.03;;;25.50;99.90;;;;;;4251949;27;20594;-78
2022/07/19 06:31:56;;;;;;;3.65;2.05;;;25.50;99.90;;;;;;4261850;27;20648;-78
2022/07/19 06:34:00;;;;;;;3.50;2.05;;;25.50;99.90;;;;;;4261632;27;20989;-77
2022/07/19 06:36:02;;;;;;;3.58;2.20;;;25.50;99.90;;;;;;4251607;27;20617;-78
2022/07/19 06:38:04;;;;;;;3.75;2.20;;;25.50;99.90;;;;;;4261796;27;20209;-78
2022/07/19 06:40:08;;;;;;;3.33;1.88;;;25.50;99.90;;;;;;4253347;27;20200;-77
2022/07/19 06:42:10;;;;;;;2.30;1.90;;;25.50;99.90;;;;;;4246598;27;21454;-77
2022/07/19 06:44:12;;;;;;;3.10;2.00;;;25.50;99.90;;;;;;4243803;27;20624;-77
2022/07/19 06:46:14;;;;;;;2.75;2.22;;;25.50;99.90;;;;;;4244652;28;20209;-77
2022/07/19 06:48:17;;;;;;;3.53;2.20;;;25.50;99.90;;;;;;4244710;28;20205;-78
2022/07/19 06:50:22;;;;;;;2.70;1.90;;;25.50;99.90;;;;;;4244384;28;20251;-77
2022/07/19 06:52:25;;;;;;;3.80;2.00;;;25.50;99.90;;;;;;4242870;27;20724;-77
2022/07/19 06:54:27;;;;;;;3.40;2.08;;;25.50;99.90;;;;;;4246901;27;20652;-77
2022/07/19 06:56:30;;;;;;;3.95;2.30;;;25.50;99.90;;;;;;4247814;27;20261;-77
2022/07/19 06:58:32;;;;;;;2.50;1.80;;;25.50;99.90;;;;;;4247633;27;20270;-78
2022/07/19 07:00:34;;;;;;;2.17;1.95;;;25.50;99.90;;;;;;4248233;27;20205;-78
2022/07/19 07:02:37;;;;;;;3.80;2.00;;;25.50;99.90;;;;;;4247607;27;20221;-78
2022/07/19 07:04:39;;;;;;;3.80;2.10;;;25.50;99.90;;;;;;4252359;27;20258;-78
2022/07/19 07:06:43;;;;;;;2.45;1.90;;;25.50;99.90;;;;;;4261793;27;20273;-77
2022/07/19 07:08:45;;;;;;;2.15;1.70;;;25.50;99.90;;;;;;4245367;27;20224;-77
2022/07/19 07:10:47;;;;;;;3.67;1.98;;;25.60;99.90;;;;;;4247639;27;20234;-77
2022/07/19 07:12:50;;;;;;;2.20;2.00;;;25.50;99.90;;;;;;4248216;27;20217;-77
2022/07/19 07:14:53;;;;;;;2.05;1.80;;;25.60;99.90;;;;;;4247758;27;20262;-77
2022/07/19 07:16:55;;;;;;;2.80;1.98;;;25.50;99.90;;;;;;4247458;27;20217;-77
2022/07/19 07:18:57;;;;;;;2.35;1.60;;;25.60;99.90;;;;;;4244635;27;20235;-78
2022/07/19 07:21:00;;;;;;;3.15;2.17;;;25.60;99.90;;;;;;4240976;27;20233;-79
2022/07/19 07:23:04;;;;;;;3.58;1.98;;;25.50;99.90;;;;;;4248987;27;20289;-79
2022/07/19 07:25:07;;;;;;;3.17;2.13;;;25.50;99.90;;;;;;4236552;27;20216;-76
2022/07/19 07:27:09;;;;;;;7.72;2.30;;;25.60;99.90;;;;;;4230877;27;20270;-78
2022/07/19 07:29:12;;;;;;;4.28;2.03;;;25.50;99.90;;;;;;4233302;27;20217;-78
2022/07/19 07:31:14;;;;;;;2.90;2.03;;;25.60;99.90;;;;;;4242339;27;20626;-78
2022/07/19 07:33:17;;;;;;;2.60;1.90;;;25.60;99.90;;;;;;4244857;27;20542;-79
2022/07/19 07:35:19;;;;;;;4.13;2.00;;;25.60;99.90;;;;;;4248737;27;20658;-79
2022/07/19 07:37:21;;;;;;;4.70;2.40;;;25.70;99.90;;;;;;4238213;27;20209;-79
2022/07/19 07:39:25;;;;;;;3.70;1.92;;;25.70;99.90;;;;;;4238722;27;20270;-79
2022/07/19 07:41:27;;;;;;;4.65;2.22;;;25.70;99.90;;;;;;4242419;27;20235;-79
2022/07/19 07:43:30;;;;;;;2.92;2.35;;;25.80;99.90;;;;;;4227007;28;20234;-81
2022/07/19 07:45:33;;;;;;;5.43;2.22;;;25.70;99.90;;;;;;4247630;27;20297;-79
2022/07/19 07:47:35;;;;;;;3.67;2.47;;;25.80;99.90;;;;;;4241383;27;20262;-80
2022/07/19 07:49:38;;;;;;;4.45;2.33;;;25.80;99.50;;;;;;4245367;27;20897;-80
2022/07/19 07:51:41;;;;;;;5.57;2.33;;;25.90;99.30;;;;;;4250618;27;20262;-79
2022/07/19 07:53:43;;;;;;;4.82;2.53;;;25.90;99.00;;;;;;4237967;27;20225;-79
2022/07/19 07:55:47;;;;;;;3.85;2.20;;;26.00;98.70;;;;;;4236788;27;20206;-80
2022/07/19 07:57:49;;;;;;;4.82;2.17;;;26.00;98.40;;;;;;4242665;27;20205;-78
2022/07/19 07:59:51;;;;;;;4.30;2.42;;;26.00;97.90;;;;;;4237364;27;20266;-79
2022/07/19 08:01:54;;;;;;;3.35;2.38;;;26.00;97.80;;;;;;4247632;27;20208;-80
2022/07/19 08:03:56;;;;;;;4.38;2.72;;;26.00;97.90;;;;;;4240816;27;20229;-79
2022/07/19 08:05:58;;;;;;;4.40;2.38;;;26.00;97.80;;;;;;4241719;27;20231;-78
2022/07/19 08:08:01;;;;;;;4.78;2.85;;;26.00;97.70;;;;;;4252114;27;20269;-78
2022/07/19 08:10:05;;;;;;;4.68;2.63;;;26.00;97.60;;;;;;4246920;27;20217;-79
2022/07/19 08:12:09;;;;;;;5.30;2.80;;;26.00;97.50;;;;;;4237405;27;20718;-78
2022/07/19 08:14:11;;;;;;;5.80;2.53;;;26.00;97.40;;;;;;4255036;27;20592;-78
2022/07/19 08:16:14;;;;;;;5.07;2.45;;;26.10;97.40;;;;;;4243245;27;20609;-77
2022/07/19 08:18:16;;;;;;;3.35;2.75;;;26.00;97.30;;;;;;4239036;27;21094;-77
2022/07/19 08:20:18;;;;;;;8.13;2.53;;;26.00;97.30;;;;;;4242961;27;20233;-78
2022/07/19 08:22:21;;;;;;;4.00;2.38;;;26.00;97.30;;;;;;4240961;27;20213;-78
2022/07/19 08:24:23;;;;;;;5.28;2.70;;;26.00;97.50;;;;;;4248107;27;20256;-79
2022/07/19 08:26:25;;;;;;;5.38;2.47;;;26.10;97.40;;;;;;4252062;27;20285;-79
2022/07/19 08:28:29;;;;;;;5.63;2.92;;;26.10;97.20;;;;;;4236350;27;20286;-78
2022/07/19 08:30:32;;;;;;;5.20;2.85;;;26.10;97.40;;;;;;4239960;27;20278;-78
2022/07/19 08:32:35;;;;;;;5.43;2.40;;;26.10;97.40;;;;;;4249347;27;20212;-77
2022/07/19 08:34:37;;;;;;;6.53;2.83;;;26.00;98.30;;;;;;4246257;27;20217;-78
2022/07/19 08:36:39;;;;;;;3.85;2.47;;;26.00;97.50;;;;;;4240735;27;20206;-77
2022/07/19 08:38:42;;;;;;;4.53;2.70;;;26.00;97.20;;;;;;4246026;27;20221;-78
2022/07/19 08:40:46;;;;;;;4.55;2.53;;;26.00;97.10;;;;;;4244575;27;20209;-77
2022/07/19 08:42:48;;;;;;;7.07;2.80;;;26.00;97.20;;;;;;4242880;27;20209;-77
2022/07/19 08:44:54;;;;;;;4.88;2.42;;;26.10;97.30;;;;;;4250050;27;20244;-78
2022/07/19 08:46:56;;;;;;;4.18;2.65;;;26.10;97.20;;;;;;4251837;27;20220;-77
2022/07/19 08:48:59;;;;;;;4.95;2.72;;;26.10;97.30;;;;;;4246634;27;20257;-78
2022/07/19 08:51:02;;;;;;;3.28;2.42;;;26.10;97.30;;;;;;4235480;27;20260;-78
2022/07/19 08:53:05;;;;;;;5.25;2.60;;;26.10;97.40;;;;;;4244924;27;20209;-77
2022/07/19 08:55:08;;;;;;;6.32;2.50;;;26.10;97.40;;;;;;4237577;27;20217;-78
2022/07/19 08:59:31;;;;;;;5.20;2.55;;;26.20;98.10;;;;;;4237520;27;20189;-78
2022/07/19 09:01:36;;;;;;;5.03;2.78;;;26.10;97.40;;;;;;4245606;27;20220;-77
2022/07/19 09:03:38;;;;;;;4.53;2.90;;;26.20;97.50;;;;;;4244257;27;20312;-77
2022/07/19 09:05:40;;;;;;;3.88;2.67;;;26.20;97.50;;;;;;4237565;27;20224;-78
2022/07/19 09:07:59;;;;;;;7.55;2.80;;;26.20;97.50;;;;;;4249991;27;20217;-77
2022/07/19 09:10:15;;;;;;;5.05;2.97;;;26.20;97.50;;;;;;4246093;27;20213;-77
2022/07/19 09:12:18;;;;;;;4.45;2.80;;;26.20;97.40;;;;;;4242787;27;20265;-78
2022/07/19 09:14:24;;;;;;;4.70;2.58;;;26.20;97.40;;;;;;4235112;27;20608;-78
2022/07/19 09:16:27;;;;;;;3.95;2.80;;;26.20;97.80;;;;;;4247684;27;20217;-79
2022/07/19 09:18:32;;;;;;;4.72;2.80;;;26.20;97.90;;;;;;4243529;27;20208;-79
2022/07/19 09:20:35;;;;;;;8.30;2.35;;;26.20;97.50;;;;;;4235892;27;20285;-78
2022/07/19 09:22:39;;;;;;;3.42;2.40;;;26.30;97.60;;;;;;4248401;27;20270;-78
2022/07/19 09:24:43;;;;;;;5.13;2.90;;;26.20;97.50;;;;;;4245510;27;20233;-78
2022/07/19 09:26:59;;;;;;;3.30;2.85;;;26.20;97.50;;;;;;4243021;27;20217;-78
2022/07/19 09:29:17;;;;;;;4.78;2.50;;;26.20;97.40;;;;;;4244512;27;20220;-78
2022/07/19 09:31:19;;;;;;;4.45;2.40;;;26.20;97.60;;;;;;4244446;27;20269;-78
2022/07/19 09:33:24;;;;;;;3.63;2.95;;;26.30;97.70;;;;;;4240686;27;20236;-78
2022/07/19 09:35:36;;;;;;;5.85;2.80;;;26.30;98.10;;;;;;4252086;27;20660;-78
2022/07/19 09:37:39;;;;;;;3.38;2.38;;;26.30;97.90;;;;;;4242395;27;20216;-78
2022/07/19 09:39:44;;;;;;;4.30;2.30;;;26.30;97.90;;;;;;4236457;27;20250;-76
2022/07/19 09:41:55;;;;;;;5.03;2.70;;;26.30;97.80;;;;;;4234458;27;20220;-76
2022/07/19 09:43:59;;;;;;;5.25;2.50;;;26.30;98.00;;;;;;4239879;27;20614;-76
2022/07/19 09:46:01;;;;;;;7.55;2.60;;;26.30;97.90;;;;;;4249468;27;20254;-75
2022/07/19 09:48:04;;;;;;;4.93;2.83;;;26.30;97.80;;;;;;4243584;27;20217;-76
2022/07/19 09:50:09;;;;;;;3.55;2.70;;;26.30;98.00;;;;;;4241135;27;20209;-75
2022/07/19 09:52:20;;;;;;;5.88;2.60;;;26.40;98.40;;;;;;4236557;27;20275;-76
2022/07/19 09:54:25;;;;;;;4.68;2.65;;;26.40;98.70;;;;;;4243292;27;20561;-75
2022/07/19 09:56:30;;;;;;;4.68;2.70;;;26.40;97.80;;;;;;4237665;27;20273;-75
2022/07/19 09:58:32;;;;;;;6.43;2.58;;;26.40;98.30;;;;;;4240579;27;20572;-75
2022/07/19 10:00:35;;;;;;;3.97;2.65;;;26.50;98.10;;;;;;4240395;27;20225;-75
2022/07/19 10:02:42;;;;;;;5.15;2.83;;;26.40;98.00;;;;;;4236832;27;20661;-75
2022/07/19 10:04:47;;;;;;;4.82;2.70;;;26.40;98.00;;;;;;4243763;27;20232;-78
2022/07/19 10:06:51;;;;;;;5.53;2.70;;;26.40;98.20;;;;;;4231972;27;20206;-79
2022/07/19 10:08:56;;;;;;;6.43;2.90;;;26.40;98.00;;;;;;4239327;27;20209;-79
2022/07/19 10:10:58;;;;;;;5.28;2.80;;;26.40;98.00;;;;;;4241660;27;20214;-79
2022/07/19 10:13:03;;;;;;;7.05;2.90;;;26.40;98.20;;;;;;4240964;27;20213;-79
2022/07/19 10:15:06;;;;;;;4.30;2.50;;;26.50;98.30;;;;;;4240371;27;20213;-79
2022/07/19 10:17:27;;;;;;;6.97;2.58;;;26.50;98.20;;;;;;4244507;27;20217;-79
2022/07/19 10:19:37;;;;;;;3.70;2.60;;;26.50;98.10;;;;;;4245892;27;20217;-79
2022/07/19 10:21:39;;;;;;;4.57;2.47;;;26.50;98.30;;;;;;4243479;27;20216;-78
2022/07/19 10:23:51;;;;;;;5.90;2.50;;;26.60;98.10;;;;;;4237912;27;20258;-78
2022/07/19 10:25:55;;;;;;;4.70;2.70;;;26.50;98.30;;;;;;4233244;27;20283;-78
2022/07/19 10:27:57;;;;;;;6.38;2.80;;;26.60;98.50;;;;;;4253253;27;20205;-79
2022/07/19 10:30:23;;;;;;;6.07;2.72;;;26.50;98.10;;;;;;4241009;27;20213;-80
2022/07/19 10:32:29;;;;;;;6.88;2.67;;;26.50;98.00;;;;;;4233142;28;20213;-80
2022/07/19 10:34:32;;;;;;;7.30;2.67;;;26.60;97.80;;;;;;4239291;27;20209;-80
2022/07/19 10:36:46;;;;;;;4.60;2.80;;;26.60;97.70;;;;;;4243801;27;20208;-80
2022/07/19 10:39:19;;;;;;;6.22;2.75;;;26.60;98.00;;;;;;4228161;28;20278;-80
2022/07/19 10:41:28;;;;;;;5.20;2.63;;;26.60;98.40;;;;;;4238560;27;20266;-80
2022/07/19 10:43:30;;;;;;;6.15;2.85;;;26.70;98.10;;;;;;4237178;27;20216;-80
2022/07/19 10:45:33;;;;;;;3.88;2.50;;;26.70;97.90;;;;;;4237999;27;20724;-80